sensor_id;sensor_type;location;lat;lon;timestamp;P1;durP1;ratioP1;P2;durP2;ratioP2
2388;SDS011;1205;47.984;7.668;2023-10-19T00:01:54;34.37;;;21.97;;
2388;SDS011;1205;47.984;7.668;2023-10-19T00:04:24;31.40;;;23.43;;
2388;SDS011;1205;47.984;7.668;2023-10-19T00:06:50;34.63;;;22.27;;
2388;SDS011;1205;47.984;7.668;2023-10-19T00:09:18;32.47;;;20.47;;
2388;SDS011;1205;47.984;7.668;2023-10-19T00:11:45;31.67;;;20.80;;
2388;SDS011;1205;47.984;7.668;2023-10-19T00:14:11;31.77;;;20.93;;
2388;SDS011;1205;47.984;7.668;2023-10-19T00:16:43;29.07;;;19.90;;
2388;SDS011;1205;47.984;7.668;2023-10-19T00:19:16;31.43;;;21.60;;
2388;SDS011;1205;47.984;7.668;2023-10-19T00:21:44;29.30;;;21.43;;
2388;SDS011;1205;47.984;7.668;2023-10-19T00:24:17;29.47;;;20.57;;
2388;SDS011;1205;47.984;7.668;2023-10-19T00:26:44;34.77;;;21.23;;
2388;SDS011;1205;47.984;7.668;2023-10-19T00:29:10;36.20;;;22.43;;
2388;SDS011;1205;47.984;7.668;2023-10-19T00:31:54;31.47;;;20.83;;
2388;SDS011;1205;47.984;7.668;2023-10-19T00:34:21;31.00;;;20.63;;
2388;SDS011;1205;47.984;7.668;2023-10-19T00:36:47;26.40;;;19.63;;
2388;SDS011;1205;47.984;7.668;2023-10-19T00:39:13;30.67;;;20.43;;
2388;SDS011;1205;47.984;7.668;2023-10-19T00:41:52;29.70;;;19.90;;
2388;SDS011;1205;47.984;7.668;2023-10-19T00:44:22;28.90;;;19.30;;
2388;SDS011;1205;47.984;7.668;2023-10-19T00:46:50;29.70;;;19.93;;
2388;SDS011;1205;47.984;7.668;2023-10-19T00:49:26;28.40;;;19.03;;
2388;SDS011;1205;47.984;7.668;2023-10-19T00:51:52;32.00;;;20.43;;
2388;SDS011;1205;47.984;7.668;2023-10-19T00:54:33;24.10;;;18.03;;
2388;SDS011;1205;47.984;7.668;2023-10-19T00:57:01;28.70;;;19.00;;
2388;SDS011;1205;47.984;7.668;2023-10-19T00:59:31;29.00;;;19.33;;
2388;SDS011;1205;47.984;7.668;2023-10-19T01:02:00;29.73;;;19.30;;
2388;SDS011;1205;47.984;7.668;2023-10-19T01:04:51;25.30;;;17.30;;
2388;SDS011;1205;47.984;7.668;2023-10-19T01:07:24;25.97;;;16.90;;
2388;SDS011;1205;47.984;7.668;2023-10-19T01:09:53;27.83;;;17.93;;
2388;SDS011;1205;47.984;7.668;2023-10-19T01:12:30;26.50;;;17.50;;
2388;SDS011;1205;47.984;7.668;2023-10-19T01:17:33;26.27;;;16.60;;
2388;SDS011;1205;47.984;7.668;2023-10-19T01:20:04;22.00;;;16.20;;
2388;SDS011;1205;47.984;7.668;2023-10-19T01:22:52;22.57;;;16.90;;
2388;SDS011;1205;47.984;7.668;2023-10-19T01:25:31;23.13;;;15.23;;
2388;SDS011;1205;47.984;7.668;2023-10-19T01:28:00;26.63;;;16.37;;
2388;SDS011;1205;47.984;7.668;2023-10-19T01:30:32;22.03;;;16.43;;
2388;SDS011;1205;47.984;7.668;2023-10-19T01:32:58;27.10;;;17.20;;
2388;SDS011;1205;47.984;7.668;2023-10-19T01:35:24;25.60;;;17.13;;
2388;SDS011;1205;47.984;7.668;2023-10-19T01:37:49;23.07;;;17.30;;
2388;SDS011;1205;47.984;7.668;2023-10-19T01:40:15;24.40;;;17.30;;
2388;SDS011;1205;47.984;7.668;2023-10-19T01:42:45;28.00;;;18.53;;
2388;SDS011;1205;47.984;7.668;2023-10-19T01:45:11;27.10;;;17.90;;
2388;SDS011;1205;47.984;7.668;2023-10-19T01:47:37;28.10;;;18.97;;
2388;SDS011;1205;47.984;7.668;2023-10-19T01:50:05;30.83;;;18.40;;
2388;SDS011;1205;47.984;7.668;2023-10-19T01:52:32;32.03;;;19.33;;
2388;SDS011;1205;47.984;7.668;2023-10-19T01:54:57;26.03;;;20.13;;
2388;SDS011;1205;47.984;7.668;2023-10-19T01:57:32;26.10;;;18.30;;
2388;SDS011;1205;47.984;7.668;2023-10-19T01:59:59;26.50;;;17.60;;
2388;SDS011;1205;47.984;7.668;2023-10-19T02:02:25;29.10;;;19.87;;
2388;SDS011;1205;47.984;7.668;2023-10-19T02:04:51;25.43;;;18.40;;
2388;SDS011;1205;47.984;7.668;2023-10-19T02:07:18;31.10;;;18.23;;
2388;SDS011;1205;47.984;7.668;2023-10-19T02:09:44;25.43;;;16.93;;
2388;SDS011;1205;47.984;7.668;2023-10-19T02:12:09;27.83;;;16.27;;
2388;SDS011;1205;47.984;7.668;2023-10-19T02:14:35;23.57;;;14.90;;
2388;SDS011;1205;47.984;7.668;2023-10-19T02:17:02;23.37;;;15.40;;
2388;SDS011;1205;47.984;7.668;2023-10-19T02:19:29;21.30;;;14.10;;
2388;SDS011;1205;47.984;7.668;2023-10-19T02:21:55;26.70;;;13.73;;
2388;SDS011;1205;47.984;7.668;2023-10-19T02:24:23;18.33;;;13.70;;
2388;SDS011;1205;47.984;7.668;2023-10-19T02:26:51;19.47;;;12.40;;
2388;SDS011;1205;47.984;7.668;2023-10-19T02:29:18;20.90;;;13.17;;
2388;SDS011;1205;47.984;7.668;2023-10-19T02:31:44;15.67;;;11.77;;
2388;SDS011;1205;47.984;7.668;2023-10-19T02:34:11;15.40;;;11.90;;
2388;SDS011;1205;47.984;7.668;2023-10-19T02:36:40;19.30;;;13.33;;
2388;SDS011;1205;47.984;7.668;2023-10-19T02:39:08;22.47;;;12.83;;
2388;SDS011;1205;47.984;7.668;2023-10-19T02:41:39;16.00;;;11.50;;
2388;SDS011;1205;47.984;7.668;2023-10-19T02:44:10;17.40;;;12.73;;
2388;SDS011;1205;47.984;7.668;2023-10-19T02:46:44;18.20;;;12.50;;
2388;SDS011;1205;47.984;7.668;2023-10-19T02:49:16;18.07;;;13.30;;
2388;SDS011;1205;47.984;7.668;2023-10-19T02:51:45;16.40;;;12.60;;
2388;SDS011;1205;47.984;7.668;2023-10-19T02:54:12;24.43;;;12.30;;
2388;SDS011;1205;47.984;7.668;2023-10-19T02:56:44;17.50;;;12.00;;
2388;SDS011;1205;47.984;7.668;2023-10-19T02:59:14;12.10;;;10.90;;
2388;SDS011;1205;47.984;7.668;2023-10-19T03:01:41;17.23;;;11.10;;
2388;SDS011;1205;47.984;7.668;2023-10-19T03:04:10;19.50;;;10.60;;
2388;SDS011;1205;47.984;7.668;2023-10-19T03:06:37;15.03;;;9.93;;
2388;SDS011;1205;47.984;7.668;2023-10-19T03:09:05;13.30;;;9.93;;
2388;SDS011;1205;47.984;7.668;2023-10-19T03:11:51;14.17;;;10.20;;
2388;SDS011;1205;47.984;7.668;2023-10-19T03:14:18;11.23;;;9.80;;
2388;SDS011;1205;47.984;7.668;2023-10-19T03:16:44;10.20;;;8.90;;
2388;SDS011;1205;47.984;7.668;2023-10-19T03:19:10;12.13;;;10.10;;
2388;SDS011;1205;47.984;7.668;2023-10-19T03:21:38;18.87;;;10.40;;
2388;SDS011;1205;47.984;7.668;2023-10-19T03:24:11;14.70;;;10.73;;
2388;SDS011;1205;47.984;7.668;2023-10-19T03:27:10;13.97;;;9.20;;
2388;SDS011;1205;47.984;7.668;2023-10-19T03:29:47;14.40;;;9.60;;
2388;SDS011;1205;47.984;7.668;2023-10-19T03:32:18;14.37;;;9.73;;
2388;SDS011;1205;47.984;7.668;2023-10-19T03:34:47;13.03;;;8.90;;
2388;SDS011;1205;47.984;7.668;2023-10-19T03:37:13;18.00;;;10.33;;
2388;SDS011;1205;47.984;7.668;2023-10-19T03:39:39;10.30;;;8.83;;
2388;SDS011;1205;47.984;7.668;2023-10-19T03:42:06;11.83;;;8.33;;
2388;SDS011;1205;47.984;7.668;2023-10-19T03:44:32;15.73;;;9.10;;
2388;SDS011;1205;47.984;7.668;2023-10-19T03:47:13;15.20;;;10.03;;
2388;SDS011;1205;47.984;7.668;2023-10-19T03:49:46;14.53;;;10.13;;
2388;SDS011;1205;47.984;7.668;2023-10-19T03:52:12;12.97;;;8.97;;
2388;SDS011;1205;47.984;7.668;2023-10-19T03:54:39;11.10;;;9.07;;
2388;SDS011;1205;47.984;7.668;2023-10-19T03:57:05;16.70;;;8.70;;
2388;SDS011;1205;47.984;7.668;2023-10-19T03:59:36;15.20;;;8.50;;
2388;SDS011;1205;47.984;7.668;2023-10-19T04:02:06;11.37;;;9.30;;
2388;SDS011;1205;47.984;7.668;2023-10-19T04:04:34;14.13;;;9.53;;
2388;SDS011;1205;47.984;7.668;2023-10-19T04:07:00;11.40;;;9.23;;
2388;SDS011;1205;47.984;7.668;2023-10-19T04:09:35;21.53;;;10.13;;
2388;SDS011;1205;47.984;7.668;2023-10-19T04:12:05;9.97;;;9.03;;
2388;SDS011;1205;47.984;7.668;2023-10-19T04:14:31;16.03;;;10.27;;
2388;SDS011;1205;47.984;7.668;2023-10-19T04:16:57;14.77;;;9.87;;
2388;SDS011;1205;47.984;7.668;2023-10-19T04:19:24;14.50;;;10.17;;
2388;SDS011;1205;47.984;7.668;2023-10-19T04:21:49;14.87;;;10.77;;
2388;SDS011;1205;47.984;7.668;2023-10-19T04:24:16;10.90;;;9.47;;
2388;SDS011;1205;47.984;7.668;2023-10-19T04:26:43;14.33;;;10.10;;
2388;SDS011;1205;47.984;7.668;2023-10-19T04:29:09;20.13;;;10.87;;
2388;SDS011;1205;47.984;7.668;2023-10-19T04:31:37;13.47;;;11.40;;
2388;SDS011;1205;47.984;7.668;2023-10-19T04:34:14;21.17;;;11.70;;
2388;SDS011;1205;47.984;7.668;2023-10-19T04:36:41;13.50;;;11.03;;
2388;SDS011;1205;47.984;7.668;2023-10-19T04:39:08;14.30;;;11.00;;
2388;SDS011;1205;47.984;7.668;2023-10-19T04:41:37;16.17;;;11.10;;
2388;SDS011;1205;47.984;7.668;2023-10-19T04:44:02;17.37;;;11.43;;
2388;SDS011;1205;47.984;7.668;2023-10-19T04:46:28;15.80;;;10.67;;
2388;SDS011;1205;47.984;7.668;2023-10-19T04:48:54;17.93;;;12.53;;
2388;SDS011;1205;47.984;7.668;2023-10-19T04:51:19;13.50;;;11.30;;
2388;SDS011;1205;47.984;7.668;2023-10-19T04:53:45;16.87;;;11.93;;
2388;SDS011;1205;47.984;7.668;2023-10-19T04:56:11;15.77;;;11.70;;
2388;SDS011;1205;47.984;7.668;2023-10-19T04:58:37;14.70;;;10.73;;
2388;SDS011;1205;47.984;7.668;2023-10-19T05:01:03;16.37;;;11.60;;
2388;SDS011;1205;47.984;7.668;2023-10-19T05:03:30;15.20;;;11.93;;
2388;SDS011;1205;47.984;7.668;2023-10-19T05:05:56;15.00;;;11.40;;
2388;SDS011;1205;47.984;7.668;2023-10-19T05:08:22;19.73;;;12.70;;
2388;SDS011;1205;47.984;7.668;2023-10-19T05:10:50;17.17;;;12.40;;
2388;SDS011;1205;47.984;7.668;2023-10-19T05:13:17;17.10;;;11.80;;
2388;SDS011;1205;47.984;7.668;2023-10-19T05:15:43;16.00;;;12.20;;
2388;SDS011;1205;47.984;7.668;2023-10-19T05:18:08;16.17;;;12.40;;
2388;SDS011;1205;47.984;7.668;2023-10-19T05:20:34;14.27;;;11.53;;
2388;SDS011;1205;47.984;7.668;2023-10-19T05:23:02;15.13;;;11.80;;
2388;SDS011;1205;47.984;7.668;2023-10-19T05:25:29;18.67;;;13.10;;
2388;SDS011;1205;47.984;7.668;2023-10-19T05:27:55;20.47;;;12.73;;
2388;SDS011;1205;47.984;7.668;2023-10-19T05:30:21;21.33;;;12.27;;
2388;SDS011;1205;47.984;7.668;2023-10-19T05:32:47;20.47;;;12.90;;
2388;SDS011;1205;47.984;7.668;2023-10-19T05:35:14;17.00;;;11.37;;
2388;SDS011;1205;47.984;7.668;2023-10-19T05:37:47;18.73;;;12.97;;
2388;SDS011;1205;47.984;7.668;2023-10-19T05:40:14;12.83;;;11.20;;
2388;SDS011;1205;47.984;7.668;2023-10-19T05:42:40;16.13;;;12.23;;
2388;SDS011;1205;47.984;7.668;2023-10-19T05:45:05;17.97;;;12.40;;
2388;SDS011;1205;47.984;7.668;2023-10-19T05:47:31;16.67;;;12.50;;
2388;SDS011;1205;47.984;7.668;2023-10-19T05:49:57;22.60;;;13.70;;
2388;SDS011;1205;47.984;7.668;2023-10-19T05:52:22;18.23;;;12.10;;
2388;SDS011;1205;47.984;7.668;2023-10-19T05:54:48;14.63;;;12.40;;
2388;SDS011;1205;47.984;7.668;2023-10-19T05:57:14;16.47;;;12.70;;
2388;SDS011;1205;47.984;7.668;2023-10-19T05:59:40;16.53;;;12.20;;
2388;SDS011;1205;47.984;7.668;2023-10-19T06:02:08;21.73;;;7.20;;
2388;SDS011;1205;47.984;7.668;2023-10-19T06:04:34;14.73;;;9.67;;
2388;SDS011;1205;47.984;7.668;2023-10-19T06:06:59;19.30;;;12.30;;
2388;SDS011;1205;47.984;7.668;2023-10-19T06:09:25;13.40;;;10.67;;
2388;SDS011;1205;47.984;7.668;2023-10-19T06:11:54;12.73;;;10.13;;
2388;SDS011;1205;47.984;7.668;2023-10-19T06:14:20;14.50;;;11.30;;
2388;SDS011;1205;47.984;7.668;2023-10-19T06:16:46;15.00;;;11.30;;
2388;SDS011;1205;47.984;7.668;2023-10-19T06:19:11;17.57;;;11.13;;
2388;SDS011;1205;47.984;7.668;2023-10-19T06:21:37;11.60;;;10.33;;
2388;SDS011;1205;47.984;7.668;2023-10-19T06:24:03;15.00;;;11.20;;
2388;SDS011;1205;47.984;7.668;2023-10-19T06:26:28;14.97;;;12.17;;
2388;SDS011;1205;47.984;7.668;2023-10-19T06:28:54;20.03;;;13.50;;
2388;SDS011;1205;47.984;7.668;2023-10-19T06:31:26;15.17;;;10.60;;
2388;SDS011;1205;47.984;7.668;2023-10-19T06:33:53;13.77;;;11.00;;
2388;SDS011;1205;47.984;7.668;2023-10-19T06:36:18;44.03;;;12.03;;
2388;SDS011;1205;47.984;7.668;2023-10-19T06:38:44;18.17;;;12.80;;
2388;SDS011;1205;47.984;7.668;2023-10-19T06:41:13;15.90;;;12.30;;
2388;SDS011;1205;47.984;7.668;2023-10-19T06:43:39;23.80;;;14.53;;
2388;SDS011;1205;47.984;7.668;2023-10-19T06:46:05;18.63;;;12.60;;
2388;SDS011;1205;47.984;7.668;2023-10-19T06:48:32;15.83;;;10.93;;
2388;SDS011;1205;47.984;7.668;2023-10-19T06:50:58;20.00;;;12.87;;
2388;SDS011;1205;47.984;7.668;2023-10-19T06:53:25;18.07;;;13.13;;
2388;SDS011;1205;47.984;7.668;2023-10-19T06:55:51;11.47;;;8.20;;
2388;SDS011;1205;47.984;7.668;2023-10-19T06:58:16;13.27;;;11.00;;
2388;SDS011;1205;47.984;7.668;2023-10-19T07:00:44;13.20;;;9.40;;
2388;SDS011;1205;47.984;7.668;2023-10-19T07:03:17;13.77;;;10.20;;
2388;SDS011;1205;47.984;7.668;2023-10-19T07:05:43;12.07;;;9.07;;
2388;SDS011;1205;47.984;7.668;2023-10-19T07:08:08;17.87;;;9.30;;
2388;SDS011;1205;47.984;7.668;2023-10-19T07:10:35;13.83;;;9.60;;
2388;SDS011;1205;47.984;7.668;2023-10-19T07:13:00;15.53;;;12.27;;
2388;SDS011;1205;47.984;7.668;2023-10-19T07:15:26;17.93;;;11.53;;
2388;SDS011;1205;47.984;7.668;2023-10-19T07:17:53;16.07;;;11.97;;
2388;SDS011;1205;47.984;7.668;2023-10-19T07:20:19;19.33;;;13.30;;
2388;SDS011;1205;47.984;7.668;2023-10-19T07:22:59;16.20;;;13.10;;
2388;SDS011;1205;47.984;7.668;2023-10-19T07:25:30;21.13;;;11.87;;
2388;SDS011;1205;47.984;7.668;2023-10-19T07:27:56;14.47;;;12.47;;
2388;SDS011;1205;47.984;7.668;2023-10-19T07:30:24;16.67;;;14.40;;
2388;SDS011;1205;47.984;7.668;2023-10-19T07:32:53;25.40;;;16.50;;
2388;SDS011;1205;47.984;7.668;2023-10-19T07:35:20;22.67;;;13.17;;
2388;SDS011;1205;47.984;7.668;2023-10-19T07:37:47;12.50;;;10.83;;
2388;SDS011;1205;47.984;7.668;2023-10-19T07:40:15;14.80;;;11.20;;
2388;SDS011;1205;47.984;7.668;2023-10-19T07:42:40;15.00;;;10.17;;
2388;SDS011;1205;47.984;7.668;2023-10-19T07:45:07;13.37;;;10.00;;
2388;SDS011;1205;47.984;7.668;2023-10-19T07:47:36;14.00;;;10.20;;
2388;SDS011;1205;47.984;7.668;2023-10-19T07:50:06;19.23;;;11.87;;
2388;SDS011;1205;47.984;7.668;2023-10-19T07:52:37;14.60;;;9.27;;
2388;SDS011;1205;47.984;7.668;2023-10-19T07:55:04;14.73;;;9.23;;
2388;SDS011;1205;47.984;7.668;2023-10-19T07:57:31;15.03;;;9.43;;
2388;SDS011;1205;47.984;7.668;2023-10-19T07:59:57;12.63;;;9.73;;
2388;SDS011;1205;47.984;7.668;2023-10-19T08:02:23;12.20;;;9.27;;
2388;SDS011;1205;47.984;7.668;2023-10-19T08:04:49;10.30;;;9.20;;
2388;SDS011;1205;47.984;7.668;2023-10-19T08:07:16;12.93;;;9.73;;
2388;SDS011;1205;47.984;7.668;2023-10-19T08:09:42;14.90;;;10.43;;
2388;SDS011;1205;47.984;7.668;2023-10-19T08:12:08;17.30;;;11.03;;
2388;SDS011;1205;47.984;7.668;2023-10-19T08:14:35;13.57;;;10.50;;
2388;SDS011;1205;47.984;7.668;2023-10-19T08:17:01;31.40;;;12.07;;
2388;SDS011;1205;47.984;7.668;2023-10-19T08:19:27;17.73;;;11.87;;
2388;SDS011;1205;47.984;7.668;2023-10-19T08:21:56;18.03;;;12.57;;
2388;SDS011;1205;47.984;7.668;2023-10-19T08:24:22;24.10;;;12.13;;
2388;SDS011;1205;47.984;7.668;2023-10-19T08:26:48;12.73;;;10.90;;
2388;SDS011;1205;47.984;7.668;2023-10-19T08:29:15;10.90;;;9.57;;
2388;SDS011;1205;47.984;7.668;2023-10-19T08:31:42;12.07;;;9.43;;
2388;SDS011;1205;47.984;7.668;2023-10-19T08:34:09;15.43;;;7.03;;
2388;SDS011;1205;47.984;7.668;2023-10-19T08:36:36;21.37;;;9.17;;
2388;SDS011;1205;47.984;7.668;2023-10-19T08:39:05;11.07;;;8.73;;
2388;SDS011;1205;47.984;7.668;2023-10-19T08:41:33;10.50;;;7.33;;
2388;SDS011;1205;47.984;7.668;2023-10-19T08:44:03;10.30;;;7.20;;
2388;SDS011;1205;47.984;7.668;2023-10-19T08:46:35;13.93;;;8.13;;
2388;SDS011;1205;47.984;7.668;2023-10-19T08:49:13;10.93;;;7.30;;
2388;SDS011;1205;47.984;7.668;2023-10-19T08:51:43;13.00;;;8.53;;
2388;SDS011;1205;47.984;7.668;2023-10-19T08:54:11;7.60;;;6.70;;
2388;SDS011;1205;47.984;7.668;2023-10-19T08:56:37;13.20;;;8.70;;
2388;SDS011;1205;47.984;7.668;2023-10-19T08:59:06;14.97;;;10.00;;
2388;SDS011;1205;47.984;7.668;2023-10-19T09:01:32;11.47;;;9.00;;
2388;SDS011;1205;47.984;7.668;2023-10-19T09:04:00;10.37;;;8.50;;
2388;SDS011;1205;47.984;7.668;2023-10-19T09:06:26;10.97;;;8.37;;
2388;SDS011;1205;47.984;7.668;2023-10-19T09:08:56;11.00;;;8.53;;
2388;SDS011;1205;47.984;7.668;2023-10-19T09:11:23;11.17;;;7.43;;
2388;SDS011;1205;47.984;7.668;2023-10-19T09:13:50;19.23;;;8.57;;
2388;SDS011;1205;47.984;7.668;2023-10-19T09:16:17;8.63;;;7.67;;
2388;SDS011;1205;47.984;7.668;2023-10-19T09:18:45;7.93;;;6.27;;
2388;SDS011;1205;47.984;7.668;2023-10-19T09:21:17;4.50;;;4.10;;
2388;SDS011;1205;47.984;7.668;2023-10-19T09:23:50;3.40;;;3.07;;
2388;SDS011;1205;47.984;7.668;2023-10-19T09:26:17;2.33;;;2.13;;
2388;SDS011;1205;47.984;7.668;2023-10-19T09:28:45;3.33;;;2.37;;
2388;SDS011;1205;47.984;7.668;2023-10-19T09:31:12;7.20;;;6.10;;
2388;SDS011;1205;47.984;7.668;2023-10-19T09:33:40;21.30;;;14.37;;
2388;SDS011;1205;47.984;7.668;2023-10-19T09:36:06;10.90;;;8.50;;
2388;SDS011;1205;47.984;7.668;2023-10-19T09:41:13;19.93;;;11.57;;
2388;SDS011;1205;47.984;7.668;2023-10-19T09:43:43;28.73;;;16.53;;
2388;SDS011;1205;47.984;7.668;2023-10-19T09:46:11;20.63;;;13.73;;
2388;SDS011;1205;47.984;7.668;2023-10-19T09:48:46;21.60;;;11.70;;
2388;SDS011;1205;47.984;7.668;2023-10-19T09:51:13;16.37;;;9.13;;
2388;SDS011;1205;47.984;7.668;2023-10-19T09:53:41;9.60;;;7.00;;
2388;SDS011;1205;47.984;7.668;2023-10-19T09:56:17;11.37;;;7.10;;
2388;SDS011;1205;47.984;7.668;2023-10-19T09:58:48;8.60;;;6.13;;
2388;SDS011;1205;47.984;7.668;2023-10-19T10:01:16;10.87;;;7.10;;
2388;SDS011;1205;47.984;7.668;2023-10-19T10:03:43;9.97;;;5.50;;
2388;SDS011;1205;47.984;7.668;2023-10-19T10:06:10;10.10;;;5.80;;
2388;SDS011;1205;47.984;7.668;2023-10-19T10:08:37;7.30;;;5.67;;
2388;SDS011;1205;47.984;7.668;2023-10-19T10:11:17;5.70;;;4.70;;
2388;SDS011;1205;47.984;7.668;2023-10-19T10:13:43;5.53;;;4.90;;
2388;SDS011;1205;47.984;7.668;2023-10-19T10:16:12;6.00;;;2.90;;
2388;SDS011;1205;47.984;7.668;2023-10-19T10:18:40;3.73;;;2.10;;
2388;SDS011;1205;47.984;7.668;2023-10-19T10:21:11;3.00;;;2.90;;
2388;SDS011;1205;47.984;7.668;2023-10-19T10:26:13;3.93;;;2.83;;
2388;SDS011;1205;47.984;7.668;2023-10-19T10:28:40;2.87;;;2.73;;
2388;SDS011;1205;47.984;7.668;2023-10-19T10:33:41;2.10;;;2.00;;
2388;SDS011;1205;47.984;7.668;2023-10-19T10:36:12;2.77;;;1.90;;
2388;SDS011;1205;47.984;7.668;2023-10-19T10:38:38;2.87;;;2.73;;
2388;SDS011;1205;47.984;7.668;2023-10-19T10:41:05;2.43;;;2.23;;
2388;SDS011;1205;47.984;7.668;2023-10-19T10:43:46;3.37;;;3.10;;
2388;SDS011;1205;47.984;7.668;2023-10-19T10:46:17;3.13;;;2.93;;
2388;SDS011;1205;47.984;7.668;2023-10-19T10:48:43;4.43;;;3.30;;
2388;SDS011;1205;47.984;7.668;2023-10-19T10:51:22;2.93;;;2.70;;
2388;SDS011;1205;47.984;7.668;2023-10-19T10:53:50;8.80;;;2.90;;
2388;SDS011;1205;47.984;7.668;2023-10-19T10:56:17;4.00;;;3.70;;
2388;SDS011;1205;47.984;7.668;2023-10-19T10:58:44;3.50;;;3.30;;
2388;SDS011;1205;47.984;7.668;2023-10-19T11:01:10;4.97;;;4.47;;
2388;SDS011;1205;47.984;7.668;2023-10-19T11:03:39;12.20;;;5.30;;
2388;SDS011;1205;47.984;7.668;2023-10-19T11:06:07;6.97;;;5.00;;
2388;SDS011;1205;47.984;7.668;2023-10-19T11:08:34;9.83;;;5.33;;
2388;SDS011;1205;47.984;7.668;2023-10-19T11:11:05;9.17;;;6.73;;
2388;SDS011;1205;47.984;7.668;2023-10-19T11:13:37;7.07;;;6.47;;
2388;SDS011;1205;47.984;7.668;2023-10-19T11:16:06;10.53;;;6.87;;
2388;SDS011;1205;47.984;7.668;2023-10-19T11:18:36;14.37;;;7.77;;
2388;SDS011;1205;47.984;7.668;2023-10-19T11:21:11;14.70;;;8.80;;
2388;SDS011;1205;47.984;7.668;2023-10-19T11:23:43;10.63;;;8.07;;
2388;SDS011;1205;47.984;7.668;2023-10-19T11:26:10;9.27;;;7.97;;
2388;SDS011;1205;47.984;7.668;2023-10-19T11:28:37;14.70;;;8.53;;
2388;SDS011;1205;47.984;7.668;2023-10-19T11:31:20;12.20;;;8.07;;
2388;SDS011;1205;47.984;7.668;2023-10-19T11:33:49;8.17;;;7.37;;
2388;SDS011;1205;47.984;7.668;2023-10-19T11:36:17;11.83;;;8.40;;
2388;SDS011;1205;47.984;7.668;2023-10-19T11:38:47;9.93;;;7.80;;
2388;SDS011;1205;47.984;7.668;2023-10-19T11:41:15;13.97;;;8.83;;
2388;SDS011;1205;47.984;7.668;2023-10-19T11:43:42;9.83;;;7.80;;
2388;SDS011;1205;47.984;7.668;2023-10-19T11:46:10;15.87;;;8.57;;
2388;SDS011;1205;47.984;7.668;2023-10-19T11:48:43;14.10;;;8.93;;
2388;SDS011;1205;47.984;7.668;2023-10-19T11:51:09;14.27;;;7.87;;
2388;SDS011;1205;47.984;7.668;2023-10-19T11:53:39;12.87;;;8.07;;
2388;SDS011;1205;47.984;7.668;2023-10-19T11:56:07;11.97;;;8.07;;
2388;SDS011;1205;47.984;7.668;2023-10-19T11:58:33;13.93;;;11.00;;
2388;SDS011;1205;47.984;7.668;2023-10-19T12:01:03;19.60;;;13.90;;
2388;SDS011;1205;47.984;7.668;2023-10-19T12:03:30;25.47;;;16.57;;
2388;SDS011;1205;47.984;7.668;2023-10-19T12:05:56;25.80;;;15.63;;
2388;SDS011;1205;47.984;7.668;2023-10-19T12:08:22;18.30;;;12.60;;
2388;SDS011;1205;47.984;7.668;2023-10-19T12:10:49;13.30;;;10.30;;
2388;SDS011;1205;47.984;7.668;2023-10-19T12:13:15;15.73;;;9.17;;
2388;SDS011;1205;47.984;7.668;2023-10-19T12:15:41;13.33;;;8.83;;
2388;SDS011;1205;47.984;7.668;2023-10-19T12:18:06;10.00;;;7.53;;
2388;SDS011;1205;47.984;7.668;2023-10-19T12:20:33;7.03;;;6.33;;
2388;SDS011;1205;47.984;7.668;2023-10-19T12:23:00;8.00;;;6.53;;
2388;SDS011;1205;47.984;7.668;2023-10-19T12:25:26;4.40;;;4.10;;
2388;SDS011;1205;47.984;7.668;2023-10-19T12:27:55;3.13;;;1.73;;
2388;SDS011;1205;47.984;7.668;2023-10-19T12:30:22;1.70;;;1.60;;
2388;SDS011;1205;47.984;7.668;2023-10-19T12:32:51;2.60;;;1.27;;
2388;SDS011;1205;47.984;7.668;2023-10-19T12:35:19;1.50;;;1.40;;
2388;SDS011;1205;47.984;7.668;2023-10-19T12:37:49;1.40;;;1.27;;
2388;SDS011;1205;47.984;7.668;2023-10-19T12:40:20;1.80;;;1.70;;
2388;SDS011;1205;47.984;7.668;2023-10-19T12:42:53;1.30;;;1.10;;
2388;SDS011;1205;47.984;7.668;2023-10-19T12:45:23;1.30;;;1.30;;
2388;SDS011;1205;47.984;7.668;2023-10-19T12:47:50;2.47;;;1.43;;
2388;SDS011;1205;47.984;7.668;2023-10-19T12:50:17;1.50;;;1.00;;
2388;SDS011;1205;47.984;7.668;2023-10-19T12:52:47;1.77;;;1.17;;
2388;SDS011;1205;47.984;7.668;2023-10-19T12:55:13;3.70;;;2.00;;
2388;SDS011;1205;47.984;7.668;2023-10-19T12:57:39;1.40;;;1.33;;
2388;SDS011;1205;47.984;7.668;2023-10-19T13:00:06;2.00;;;1.00;;
2388;SDS011;1205;47.984;7.668;2023-10-19T13:02:54;2.47;;;1.60;;
2388;SDS011;1205;47.984;7.668;2023-10-19T13:05:29;1.37;;;1.27;;
2388;SDS011;1205;47.984;7.668;2023-10-19T13:08:02;3.30;;;1.20;;
2388;SDS011;1205;47.984;7.668;2023-10-19T13:10:30;1.60;;;1.20;;
2388;SDS011;1205;47.984;7.668;2023-10-19T13:13:00;1.10;;;1.10;;
2388;SDS011;1205;47.984;7.668;2023-10-19T13:15:28;1.77;;;1.20;;
2388;SDS011;1205;47.984;7.668;2023-10-19T13:17:56;1.03;;;1.00;;
2388;SDS011;1205;47.984;7.668;2023-10-19T13:20:23;1.00;;;1.00;;
2388;SDS011;1205;47.984;7.668;2023-10-19T13:22:50;1.30;;;1.17;;
2388;SDS011;1205;47.984;7.668;2023-10-19T13:25:16;1.23;;;1.00;;
2388;SDS011;1205;47.984;7.668;2023-10-19T13:27:45;7.60;;;1.63;;
2388;SDS011;1205;47.984;7.668;2023-10-19T13:30:11;1.07;;;1.07;;
2388;SDS011;1205;47.984;7.668;2023-10-19T13:32:37;0.93;;;0.93;;
2388;SDS011;1205;47.984;7.668;2023-10-19T13:35:03;1.30;;;1.20;;
2388;SDS011;1205;47.984;7.668;2023-10-19T13:37:29;1.00;;;1.00;;
2388;SDS011;1205;47.984;7.668;2023-10-19T13:39:55;2.53;;;1.13;;
2388;SDS011;1205;47.984;7.668;2023-10-19T13:42:21;2.37;;;1.07;;
2388;SDS011;1205;47.984;7.668;2023-10-19T13:44:47;0.90;;;0.90;;
2388;SDS011;1205;47.984;7.668;2023-10-19T13:47:13;3.37;;;1.13;;
2388;SDS011;1205;47.984;7.668;2023-10-19T13:49:38;1.53;;;1.20;;
2388;SDS011;1205;47.984;7.668;2023-10-19T13:52:04;2.00;;;1.30;;
2388;SDS011;1205;47.984;7.668;2023-10-19T13:54:30;1.27;;;1.20;;
2388;SDS011;1205;47.984;7.668;2023-10-19T13:56:55;1.57;;;1.50;;
2388;SDS011;1205;47.984;7.668;2023-10-19T13:59:21;3.17;;;1.43;;
2388;SDS011;1205;47.984;7.668;2023-10-19T14:01:48;1.10;;;1.10;;
2388;SDS011;1205;47.984;7.668;2023-10-19T14:04:15;6.57;;;1.40;;
2388;SDS011;1205;47.984;7.668;2023-10-19T14:06:41;6.73;;;1.27;;
2388;SDS011;1205;47.984;7.668;2023-10-19T14:09:08;0.93;;;0.93;;
2388;SDS011;1205;47.984;7.668;2023-10-19T14:11:37;1.47;;;1.00;;
2388;SDS011;1205;47.984;7.668;2023-10-19T14:14:03;0.97;;;0.87;;
2388;SDS011;1205;47.984;7.668;2023-10-19T14:16:29;0.60;;;0.60;;
2388;SDS011;1205;47.984;7.668;2023-10-19T14:18:55;2.27;;;1.00;;
2388;SDS011;1205;47.984;7.668;2023-10-19T14:21:21;1.00;;;1.00;;
2388;SDS011;1205;47.984;7.668;2023-10-19T14:23:48;1.63;;;1.13;;
2388;SDS011;1205;47.984;7.668;2023-10-19T14:26:14;4.30;;;1.07;;
2388;SDS011;1205;47.984;7.668;2023-10-19T14:28:39;1.20;;;1.13;;
2388;SDS011;1205;47.984;7.668;2023-10-19T14:31:06;1.90;;;1.80;;
2388;SDS011;1205;47.984;7.668;2023-10-19T14:33:32;3.67;;;2.30;;
2388;SDS011;1205;47.984;7.668;2023-10-19T14:36:00;2.60;;;2.50;;
2388;SDS011;1205;47.984;7.668;2023-10-19T14:38:26;2.33;;;2.23;;
2388;SDS011;1205;47.984;7.668;2023-10-19T14:40:52;1.67;;;1.57;;
2388;SDS011;1205;47.984;7.668;2023-10-19T14:43:18;1.40;;;1.30;;
2388;SDS011;1205;47.984;7.668;2023-10-19T14:45:44;1.10;;;1.00;;
2388;SDS011;1205;47.984;7.668;2023-10-19T14:48:09;1.10;;;1.00;;
2388;SDS011;1205;47.984;7.668;2023-10-19T14:50:36;1.00;;;1.00;;
2388;SDS011;1205;47.984;7.668;2023-10-19T14:53:03;0.90;;;0.90;;
2388;SDS011;1205;47.984;7.668;2023-10-19T14:55:29;3.40;;;1.00;;
2388;SDS011;1205;47.984;7.668;2023-10-19T14:57:55;0.80;;;0.80;;
2388;SDS011;1205;47.984;7.668;2023-10-19T15:00:24;1.00;;;1.00;;
2388;SDS011;1205;47.984;7.668;2023-10-19T15:03:02;2.60;;;1.30;;
2388;SDS011;1205;47.984;7.668;2023-10-19T15:05:35;3.80;;;1.70;;
2388;SDS011;1205;47.984;7.668;2023-10-19T15:08:02;2.03;;;1.93;;
2388;SDS011;1205;47.984;7.668;2023-10-19T15:10:32;4.50;;;4.10;;
2388;SDS011;1205;47.984;7.668;2023-10-19T15:12:58;3.83;;;3.50;;
2388;SDS011;1205;47.984;7.668;2023-10-19T15:15:28;4.20;;;2.03;;